sensor_id;sensor_type;location;lat;lon;timestamp;P1;durP1;ratioP1;P2;durP2;ratioP2
40745;SDS011;26454;51.164;4.488;2023-04-26T00:02:10;15.73;;;8.95;;
40745;SDS011;26454;51.164;4.488;2023-04-26T00:04:37;18.15;;;8.93;;
40745;SDS011;26454;51.164;4.488;2023-04-26T00:07:03;15.23;;;8.73;;
40745;SDS011;26454;51.164;4.488;2023-04-26T00:09:29;17.63;;;8.82;;
40745;SDS011;26454;51.164;4.488;2023-04-26T00:11:55;25.98;;;10.10;;
40745;SDS011;26454;51.164;4.488;2023-04-26T00:14:21;16.33;;;7.55;;
40745;SDS011;26454;51.164;4.488;2023-04-26T00:16:49;16.42;;;9.00;;
40745;SDS011;26454;51.164;4.488;2023-04-26T00:19:15;16.17;;;9.02;;
40745;SDS011;26454;51.164;4.488;2023-04-26T00:21:42;13.52;;;8.23;;
40745;SDS011;26454;51.164;4.488;2023-04-26T00:24:08;16.48;;;8.68;;
40745;SDS011;26454;51.164;4.488;2023-04-26T00:26:34;17.73;;;8.35;;
40745;SDS011;26454;51.164;4.488;2023-04-26T00:29:01;22.20;;;7.68;;
40745;SDS011;26454;51.164;4.488;2023-04-26T00:31:28;11.60;;;7.97;;
40745;SDS011;26454;51.164;4.488;2023-04-26T00:33:55;12.10;;;7.82;;
40745;SDS011;26454;51.164;4.488;2023-04-26T00:36:21;13.05;;;7.43;;
40745;SDS011;26454;51.164;4.488;2023-04-26T00:38:47;13.65;;;8.43;;
40745;SDS011;26454;51.164;4.488;2023-04-26T00:41:13;16.25;;;8.00;;
40745;SDS011;26454;51.164;4.488;2023-04-26T00:43:39;14.70;;;8.43;;
40745;SDS011;26454;51.164;4.488;2023-04-26T00:46:05;14.68;;;8.40;;
40745;SDS011;26454;51.164;4.488;2023-04-26T00:48:32;15.20;;;8.23;;
40745;SDS011;26454;51.164;4.488;2023-04-26T00:50:58;14.02;;;7.95;;
40745;SDS011;26454;51.164;4.488;2023-04-26T00:53:25;11.43;;;7.45;;
40745;SDS011;26454;51.164;4.488;2023-04-26T00:55:51;15.75;;;8.60;;
40745;SDS011;26454;51.164;4.488;2023-04-26T00:58:18;14.40;;;7.90;;
40745;SDS011;26454;51.164;4.488;2023-04-26T01:00:44;14.15;;;7.63;;
40745;SDS011;26454;51.164;4.488;2023-04-26T01:03:11;17.48;;;8.77;;
40745;SDS011;26454;51.164;4.488;2023-04-26T01:05:38;12.20;;;8.07;;
40745;SDS011;26454;51.164;4.488;2023-04-26T01:08:04;14.30;;;9.10;;
40745;SDS011;26454;51.164;4.488;2023-04-26T01:10:31;11.52;;;8.02;;
40745;SDS011;26454;51.164;4.488;2023-04-26T01:12:59;19.15;;;9.93;;
40745;SDS011;26454;51.164;4.488;2023-04-26T01:15:25;12.00;;;7.95;;
40745;SDS011;26454;51.164;4.488;2023-04-26T01:17:53;12.48;;;9.40;;
40745;SDS011;26454;51.164;4.488;2023-04-26T01:20:22;14.13;;;9.57;;
40745;SDS011;26454;51.164;4.488;2023-04-26T01:22:50;16.90;;;9.43;;
40745;SDS011;26454;51.164;4.488;2023-04-26T01:25:16;17.92;;;9.23;;
40745;SDS011;26454;51.164;4.488;2023-04-26T01:27:44;16.13;;;9.02;;
40745;SDS011;26454;51.164;4.488;2023-04-26T01:30:10;21.73;;;10.80;;
40745;SDS011;26454;51.164;4.488;2023-04-26T01:32:37;18.25;;;10.20;;
40745;SDS011;26454;51.164;4.488;2023-04-26T01:35:03;13.68;;;8.32;;
40745;SDS011;26454;51.164;4.488;2023-04-26T01:37:29;15.77;;;10.32;;
40745;SDS011;26454;51.164;4.488;2023-04-26T01:39:56;15.00;;;9.15;;
40745;SDS011;26454;51.164;4.488;2023-04-26T01:42:22;14.35;;;9.30;;
40745;SDS011;26454;51.164;4.488;2023-04-26T01:44:48;16.40;;;9.93;;
40745;SDS011;26454;51.164;4.488;2023-04-26T01:47:14;22.00;;;13.25;;
40745;SDS011;26454;51.164;4.488;2023-04-26T01:49:41;18.52;;;13.60;;
40745;SDS011;26454;51.164;4.488;2023-04-26T01:52:08;20.30;;;14.80;;
40745;SDS011;26454;51.164;4.488;2023-04-26T01:54:34;25.70;;;17.08;;
40745;SDS011;26454;51.164;4.488;2023-04-26T01:57:00;31.35;;;21.25;;
40745;SDS011;26454;51.164;4.488;2023-04-26T01:59:26;28.70;;;20.17;;
40745;SDS011;26454;51.164;4.488;2023-04-26T02:01:52;28.10;;;20.15;;
40745;SDS011;26454;51.164;4.488;2023-04-26T02:04:19;23.20;;;17.92;;
40745;SDS011;26454;51.164;4.488;2023-04-26T02:06:45;22.00;;;15.90;;
40745;SDS011;26454;51.164;4.488;2023-04-26T02:09:11;27.25;;;17.42;;
40745;SDS011;26454;51.164;4.488;2023-04-26T02:11:37;24.95;;;17.65;;
40745;SDS011;26454;51.164;4.488;2023-04-26T02:14:03;24.58;;;16.52;;
40745;SDS011;26454;51.164;4.488;2023-04-26T02:16:29;32.65;;;18.15;;
40745;SDS011;26454;51.164;4.488;2023-04-26T02:18:56;29.85;;;19.55;;
40745;SDS011;26454;51.164;4.488;2023-04-26T02:21:23;33.20;;;19.30;;
40745;SDS011;26454;51.164;4.488;2023-04-26T02:23:49;31.50;;;19.90;;
40745;SDS011;26454;51.164;4.488;2023-04-26T02:26:16;30.02;;;18.25;;
40745;SDS011;26454;51.164;4.488;2023-04-26T02:28:42;29.92;;;19.95;;
40745;SDS011;26454;51.164;4.488;2023-04-26T02:31:08;27.33;;;18.40;;
40745;SDS011;26454;51.164;4.488;2023-04-26T02:33:35;28.63;;;17.85;;
40745;SDS011;26454;51.164;4.488;2023-04-26T02:36:01;30.92;;;17.98;;
40745;SDS011;26454;51.164;4.488;2023-04-26T02:38:29;31.98;;;16.67;;
40745;SDS011;26454;51.164;4.488;2023-04-26T02:40:57;28.75;;;16.85;;
40745;SDS011;26454;51.164;4.488;2023-04-26T02:43:23;21.60;;;15.52;;
40745;SDS011;26454;51.164;4.488;2023-04-26T02:45:50;22.25;;;15.30;;
40745;SDS011;26454;51.164;4.488;2023-04-26T02:48:16;22.52;;;14.20;;
40745;SDS011;26454;51.164;4.488;2023-04-26T02:50:43;19.58;;;13.75;;
40745;SDS011;26454;51.164;4.488;2023-04-26T02:53:09;20.02;;;14.90;;
40745;SDS011;26454;51.164;4.488;2023-04-26T02:55:37;23.45;;;15.35;;
40745;SDS011;26454;51.164;4.488;2023-04-26T02:58:05;21.15;;;14.57;;
40745;SDS011;26454;51.164;4.488;2023-04-26T03:00:33;23.77;;;13.15;;
40745;SDS011;26454;51.164;4.488;2023-04-26T03:02:59;24.42;;;14.38;;
40745;SDS011;26454;51.164;4.488;2023-04-26T03:05:25;23.83;;;15.23;;
40745;SDS011;26454;51.164;4.488;2023-04-26T03:07:51;32.30;;;16.70;;
40745;SDS011;26454;51.164;4.488;2023-04-26T03:10:17;25.20;;;15.38;;
40745;SDS011;26454;51.164;4.488;2023-04-26T03:12:44;23.55;;;15.05;;
40745;SDS011;26454;51.164;4.488;2023-04-26T03:15:10;24.55;;;15.63;;
40745;SDS011;26454;51.164;4.488;2023-04-26T03:17:36;24.65;;;16.10;;
40745;SDS011;26454;51.164;4.488;2023-04-26T03:20:03;24.58;;;15.77;;
40745;SDS011;26454;51.164;4.488;2023-04-26T03:22:34;27.85;;;16.42;;
40745;SDS011;26454;51.164;4.488;2023-04-26T03:25:03;26.35;;;16.75;;
40745;SDS011;26454;51.164;4.488;2023-04-26T03:27:29;23.83;;;15.48;;
40745;SDS011;26454;51.164;4.488;2023-04-26T03:30:04;23.45;;;15.30;;
40745;SDS011;26454;51.164;4.488;2023-04-26T03:32:31;25.67;;;16.35;;
40745;SDS011;26454;51.164;4.488;2023-04-26T03:34:57;24.63;;;16.90;;
40745;SDS011;26454;51.164;4.488;2023-04-26T03:37:24;22.08;;;14.18;;
40745;SDS011;26454;51.164;4.488;2023-04-26T03:39:50;27.60;;;14.73;;
40745;SDS011;26454;51.164;4.488;2023-04-26T03:42:18;24.42;;;15.23;;
40745;SDS011;26454;51.164;4.488;2023-04-26T03:44:45;20.65;;;13.77;;
40745;SDS011;26454;51.164;4.488;2023-04-26T03:47:11;28.23;;;15.52;;
40745;SDS011;26454;51.164;4.488;2023-04-26T03:49:43;34.58;;;15.40;;
40745;SDS011;26454;51.164;4.488;2023-04-26T03:52:15;26.50;;;14.82;;
40745;SDS011;26454;51.164;4.488;2023-04-26T03:54:42;25.15;;;13.15;;
40745;SDS011;26454;51.164;4.488;2023-04-26T03:57:08;21.30;;;13.95;;
40745;SDS011;26454;51.164;4.488;2023-04-26T03:59:34;22.42;;;14.32;;
40745;SDS011;26454;51.164;4.488;2023-04-26T04:02:00;27.13;;;16.42;;
40745;SDS011;26454;51.164;4.488;2023-04-26T04:04:26;28.95;;;14.88;;
40745;SDS011;26454;51.164;4.488;2023-04-26T04:06:53;23.63;;;14.45;;
40745;SDS011;26454;51.164;4.488;2023-04-26T04:09:19;20.92;;;15.13;;
40745;SDS011;26454;51.164;4.488;2023-04-26T04:11:46;31.60;;;16.30;;
40745;SDS011;26454;51.164;4.488;2023-04-26T04:14:13;27.92;;;15.15;;
40745;SDS011;26454;51.164;4.488;2023-04-26T04:16:39;25.30;;;14.10;;
40745;SDS011;26454;51.164;4.488;2023-04-26T04:19:07;24.25;;;13.60;;
40745;SDS011;26454;51.164;4.488;2023-04-26T04:21:33;25.58;;;15.60;;
40745;SDS011;26454;51.164;4.488;2023-04-26T04:23:59;24.45;;;14.85;;
40745;SDS011;26454;51.164;4.488;2023-04-26T04:26:25;20.42;;;13.48;;
40745;SDS011;26454;51.164;4.488;2023-04-26T04:28:53;20.30;;;13.57;;
40745;SDS011;26454;51.164;4.488;2023-04-26T04:31:22;21.10;;;13.02;;
40745;SDS011;26454;51.164;4.488;2023-04-26T04:33:48;24.98;;;14.73;;
40745;SDS011;26454;51.164;4.488;2023-04-26T04:36:15;22.42;;;13.23;;
40745;SDS011;26454;51.164;4.488;2023-04-26T04:38:42;24.85;;;12.85;;
40745;SDS011;26454;51.164;4.488;2023-04-26T04:41:09;32.35;;;16.60;;
40745;SDS011;26454;51.164;4.488;2023-04-26T04:43:37;30.75;;;14.35;;
40745;SDS011;26454;51.164;4.488;2023-04-26T04:46:03;27.45;;;14.15;;
40745;SDS011;26454;51.164;4.488;2023-04-26T04:48:29;22.33;;;13.35;;
40745;SDS011;26454;51.164;4.488;2023-04-26T04:50:55;32.05;;;13.88;;
40745;SDS011;26454;51.164;4.488;2023-04-26T04:53:23;26.23;;;14.80;;
40745;SDS011;26454;51.164;4.488;2023-04-26T04:55:51;21.42;;;13.40;;
40745;SDS011;26454;51.164;4.488;2023-04-26T04:58:18;24.48;;;13.38;;
40745;SDS011;26454;51.164;4.488;2023-04-26T05:00:48;26.08;;;15.23;;
40745;SDS011;26454;51.164;4.488;2023-04-26T05:03:15;22.10;;;13.35;;
40745;SDS011;26454;51.164;4.488;2023-04-26T05:05:42;24.35;;;13.05;;
40745;SDS011;26454;51.164;4.488;2023-04-26T05:08:08;26.75;;;13.88;;
40745;SDS011;26454;51.164;4.488;2023-04-26T05:10:34;29.42;;;14.85;;
40745;SDS011;26454;51.164;4.488;2023-04-26T05:13:00;25.58;;;13.48;;
40745;SDS011;26454;51.164;4.488;2023-04-26T05:15:26;26.13;;;14.60;;
40745;SDS011;26454;51.164;4.488;2023-04-26T05:17:54;31.13;;;15.55;;
40745;SDS011;26454;51.164;4.488;2023-04-26T05:20:20;27.65;;;14.27;;
40745;SDS011;26454;51.164;4.488;2023-04-26T05:22:46;24.02;;;14.43;;
40745;SDS011;26454;51.164;4.488;2023-04-26T05:25:12;30.73;;;16.27;;
40745;SDS011;26454;51.164;4.488;2023-04-26T05:27:39;27.83;;;16.42;;
40745;SDS011;26454;51.164;4.488;2023-04-26T05:30:05;29.45;;;16.45;;
40745;SDS011;26454;51.164;4.488;2023-04-26T05:32:32;26.77;;;14.95;;
40745;SDS011;26454;51.164;4.488;2023-04-26T05:34:58;22.73;;;13.27;;
40745;SDS011;26454;51.164;4.488;2023-04-26T05:37:26;26.38;;;13.80;;
40745;SDS011;26454;51.164;4.488;2023-04-26T05:39:52;30.42;;;15.27;;
40745;SDS011;26454;51.164;4.488;2023-04-26T05:42:20;26.08;;;15.77;;
40745;SDS011;26454;51.164;4.488;2023-04-26T05:44:46;22.40;;;12.13;;
40745;SDS011;26454;51.164;4.488;2023-04-26T05:47:12;20.95;;;12.48;;
40745;SDS011;26454;51.164;4.488;2023-04-26T05:49:38;19.67;;;13.07;;
40745;SDS011;26454;51.164;4.488;2023-04-26T05:52:04;22.88;;;13.15;;
40745;SDS011;26454;51.164;4.488;2023-04-26T05:54:30;18.50;;;12.45;;
40745;SDS011;26454;51.164;4.488;2023-04-26T05:56:56;19.80;;;11.73;;
40745;SDS011;26454;51.164;4.488;2023-04-26T05:59:23;19.75;;;12.65;;
40745;SDS011;26454;51.164;4.488;2023-04-26T06:01:56;22.05;;;12.45;;
40745;SDS011;26454;51.164;4.488;2023-04-26T06:04:23;20.02;;;11.50;;
40745;SDS011;26454;51.164;4.488;2023-04-26T06:06:49;21.80;;;11.70;;
40745;SDS011;26454;51.164;4.488;2023-04-26T06:09:15;19.45;;;10.90;;
40745;SDS011;26454;51.164;4.488;2023-04-26T06:11:41;24.45;;;11.90;;
40745;SDS011;26454;51.164;4.488;2023-04-26T06:14:07;20.23;;;11.68;;
40745;SDS011;26454;51.164;4.488;2023-04-26T06:16:33;20.73;;;12.43;;
40745;SDS011;26454;51.164;4.488;2023-04-26T06:19:00;21.38;;;11.73;;
40745;SDS011;26454;51.164;4.488;2023-04-26T06:21:26;21.75;;;12.00;;
40745;SDS011;26454;51.164;4.488;2023-04-26T06:23:52;21.33;;;13.05;;
40745;SDS011;26454;51.164;4.488;2023-04-26T06:26:19;20.10;;;11.40;;
40745;SDS011;26454;51.164;4.488;2023-04-26T06:28:46;29.30;;;12.10;;
40745;SDS011;26454;51.164;4.488;2023-04-26T06:31:19;23.85;;;13.10;;
40745;SDS011;26454;51.164;4.488;2023-04-26T06:33:47;20.25;;;11.80;;
40745;SDS011;26454;51.164;4.488;2023-04-26T06:36:24;27.98;;;12.63;;
40745;SDS011;26454;51.164;4.488;2023-04-26T06:38:52;19.38;;;11.57;;
40745;SDS011;26454;51.164;4.488;2023-04-26T06:41:18;20.08;;;11.85;;
40745;SDS011;26454;51.164;4.488;2023-04-26T06:43:46;18.73;;;12.30;;
40745;SDS011;26454;51.164;4.488;2023-04-26T06:46:13;22.17;;;12.02;;
40745;SDS011;26454;51.164;4.488;2023-04-26T06:48:41;17.17;;;10.15;;
40745;SDS011;26454;51.164;4.488;2023-04-26T06:51:07;23.20;;;10.57;;
40745;SDS011;26454;51.164;4.488;2023-04-26T06:53:34;19.08;;;11.10;;
40745;SDS011;26454;51.164;4.488;2023-04-26T06:56:01;18.88;;;10.45;;
40745;SDS011;26454;51.164;4.488;2023-04-26T06:58:28;15.50;;;10.27;;
40745;SDS011;26454;51.164;4.488;2023-04-26T07:00:54;15.65;;;10.20;;
40745;SDS011;26454;51.164;4.488;2023-04-26T07:03:20;18.70;;;10.02;;
40745;SDS011;26454;51.164;4.488;2023-04-26T07:05:47;17.25;;;10.68;;
40745;SDS011;26454;51.164;4.488;2023-04-26T07:08:13;19.55;;;9.77;;
40745;SDS011;26454;51.164;4.488;2023-04-26T07:10:45;15.90;;;9.80;;
40745;SDS011;26454;51.164;4.488;2023-04-26T07:13:12;24.50;;;12.93;;
40745;SDS011;26454;51.164;4.488;2023-04-26T07:18:07;24.27;;;11.80;;
40745;SDS011;26454;51.164;4.488;2023-04-26T07:20:33;21.70;;;10.18;;
40745;SDS011;26454;51.164;4.488;2023-04-26T07:23:00;16.85;;;10.77;;
40745;SDS011;26454;51.164;4.488;2023-04-26T07:25:28;21.45;;;10.00;;
40745;SDS011;26454;51.164;4.488;2023-04-26T07:27:58;15.80;;;9.03;;
40745;SDS011;26454;51.164;4.488;2023-04-26T07:30:24;22.55;;;10.35;;
40745;SDS011;26454;51.164;4.488;2023-04-26T07:32:50;11.43;;;7.70;;
40745;SDS011;26454;51.164;4.488;2023-04-26T07:35:17;16.17;;;9.23;;
40745;SDS011;26454;51.164;4.488;2023-04-26T07:37:43;18.90;;;7.32;;
40745;SDS011;26454;51.164;4.488;2023-04-26T07:40:09;13.75;;;7.10;;
40745;SDS011;26454;51.164;4.488;2023-04-26T07:42:37;16.90;;;8.93;;
40745;SDS011;26454;51.164;4.488;2023-04-26T07:45:05;12.45;;;8.30;;
40745;SDS011;26454;51.164;4.488;2023-04-26T07:47:31;20.08;;;9.57;;
40745;SDS011;26454;51.164;4.488;2023-04-26T07:49:57;14.70;;;8.68;;
40745;SDS011;26454;51.164;4.488;2023-04-26T07:52:24;19.17;;;8.05;;
40745;SDS011;26454;51.164;4.488;2023-04-26T07:54:50;17.98;;;8.60;;
40745;SDS011;26454;51.164;4.488;2023-04-26T07:57:16;15.18;;;9.38;;
40745;SDS011;26454;51.164;4.488;2023-04-26T07:59:42;14.23;;;8.73;;
40745;SDS011;26454;51.164;4.488;2023-04-26T08:02:08;17.50;;;8.45;;
40745;SDS011;26454;51.164;4.488;2023-04-26T08:04:43;14.70;;;8.98;;
40745;SDS011;26454;51.164;4.488;2023-04-26T08:07:12;12.55;;;8.02;;
40745;SDS011;26454;51.164;4.488;2023-04-26T08:09:40;11.82;;;7.70;;
40745;SDS011;26454;51.164;4.488;2023-04-26T08:12:07;18.30;;;9.07;;
40745;SDS011;26454;51.164;4.488;2023-04-26T08:14:34;19.63;;;8.35;;
40745;SDS011;26454;51.164;4.488;2023-04-26T08:17:00;14.15;;;8.93;;
40745;SDS011;26454;51.164;4.488;2023-04-26T08:19:26;17.10;;;7.82;;
40745;SDS011;26454;51.164;4.488;2023-04-26T08:21:55;15.20;;;9.30;;
40745;SDS011;26454;51.164;4.488;2023-04-26T08:24:21;21.52;;;9.35;;
40745;SDS011;26454;51.164;4.488;2023-04-26T08:26:48;18.45;;;9.70;;
40745;SDS011;26454;51.164;4.488;2023-04-26T08:29:14;26.35;;;11.00;;
40745;SDS011;26454;51.164;4.488;2023-04-26T08:31:41;15.80;;;10.13;;
40745;SDS011;26454;51.164;4.488;2023-04-26T08:34:07;18.17;;;9.57;;
40745;SDS011;26454;51.164;4.488;2023-04-26T08:36:36;14.57;;;8.40;;
40745;SDS011;26454;51.164;4.488;2023-04-26T08:39:03;22.63;;;8.90;;
40745;SDS011;26454;51.164;4.488;2023-04-26T08:41:30;12.30;;;6.63;;
40745;SDS011;26454;51.164;4.488;2023-04-26T08:44:04;12.43;;;5.43;;
40745;SDS011;26454;51.164;4.488;2023-04-26T08:46:33;9.55;;;4.25;;
40745;SDS011;26454;51.164;4.488;2023-04-26T08:49:04;11.90;;;4.38;;
40745;SDS011;26454;51.164;4.488;2023-04-26T08:51:35;10.45;;;5.38;;
40745;SDS011;26454;51.164;4.488;2023-04-26T08:54:03;9.68;;;6.00;;
40745;SDS011;26454;51.164;4.488;2023-04-26T08:56:31;16.17;;;6.55;;
40745;SDS011;26454;51.164;4.488;2023-04-26T08:58:59;17.93;;;7.30;;
40745;SDS011;26454;51.164;4.488;2023-04-26T09:01:27;12.00;;;6.20;;
40745;SDS011;26454;51.164;4.488;2023-04-26T09:03:54;9.80;;;5.45;;
40745;SDS011;26454;51.164;4.488;2023-04-26T09:06:22;9.85;;;5.53;;
40745;SDS011;26454;51.164;4.488;2023-04-26T09:08:48;9.90;;;4.40;;
40745;SDS011;26454;51.164;4.488;2023-04-26T09:11:16;10.10;;;5.05;;
40745;SDS011;26454;51.164;4.488;2023-04-26T09:13:42;8.70;;;3.95;;
40745;SDS011;26454;51.164;4.488;2023-04-26T09:16:08;7.50;;;4.47;;
40745;SDS011;26454;51.164;4.488;2023-04-26T09:18:45;7.72;;;3.45;;
40745;SDS011;26454;51.164;4.488;2023-04-26T09:21:11;6.68;;;1.75;;
40745;SDS011;26454;51.164;4.488;2023-04-26T09:26:20;8.18;;;3.67;;
40745;SDS011;26454;51.164;4.488;2023-04-26T09:29:10;8.50;;;3.40;;
40745;SDS011;26454;51.164;4.488;2023-04-26T09:31:46;7.88;;;3.08;;
40745;SDS011;26454;51.164;4.488;2023-04-26T09:34:14;10.00;;;3.13;;
40745;SDS011;26454;51.164;4.488;2023-04-26T09:36:45;5.60;;;3.42;;
40745;SDS011;26454;51.164;4.488;2023-04-26T09:39:11;6.65;;;3.45;;
40745;SDS011;26454;51.164;4.488;2023-04-26T09:41:43;10.70;;;3.53;;
40745;SDS011;26454;51.164;4.488;2023-04-26T09:44:23;13.00;;;3.60;;
40745;SDS011;26454;51.164;4.488;2023-04-26T09:46:57;13.13;;;4.82;;
40745;SDS011;26454;51.164;4.488;2023-04-26T09:49:25;9.75;;;3.88;;
40745;SDS011;26454;51.164;4.488;2023-04-26T09:57:10;5.45;;;4.00;;
40745;SDS011;26454;51.164;4.488;2023-04-26T09:59:40;9.38;;;4.18;;
40745;SDS011;26454;51.164;4.488;2023-04-26T10:02:09;6.97;;;4.28;;
40745;SDS011;26454;51.164;4.488;2023-04-26T10:04:38;12.13;;;4.70;;
40745;SDS011;26454;51.164;4.488;2023-04-26T10:07:04;6.78;;;4.43;;
40745;SDS011;26454;51.164;4.488;2023-04-26T10:09:31;9.90;;;4.63;;
40745;SDS011;26454;51.164;4.488;2023-04-26T10:11:58;8.80;;;4.75;;
40745;SDS011;26454;51.164;4.488;2023-04-26T10:14:24;8.52;;;5.13;;
40745;SDS011;26454;51.164;4.488;2023-04-26T10:16:51;7.70;;;4.43;;
40745;SDS011;26454;51.164;4.488;2023-04-26T10:19:18;16.58;;;5.53;;
40745;SDS011;26454;51.164;4.488;2023-04-26T10:21:50;13.38;;;4.50;;
40745;SDS011;26454;51.164;4.488;2023-04-26T10:24:17;11.43;;;5.15;;
40745;SDS011;26454;51.164;4.488;2023-04-26T10:26:47;13.60;;;5.07;;
40745;SDS011;26454;51.164;4.488;2023-04-26T10:29:14;6.88;;;4.70;;
40745;SDS011;26454;51.164;4.488;2023-04-26T10:34:19;6.38;;;4.05;;
40745;SDS011;26454;51.164;4.488;2023-04-26T10:39:21;6.75;;;4.28;;
40745;SDS011;26454;51.164;4.488;2023-04-26T10:41:49;13.45;;;4.63;;
40745;SDS011;26454;51.164;4.488;2023-04-26T10:46:51;7.60;;;4.10;;
40745;SDS011;26454;51.164;4.488;2023-04-26T10:49:18;10.85;;;3.95;;
40745;SDS011;26454;51.164;4.488;2023-04-26T10:54:23;11.13;;;4.88;;
40745;SDS011;26454;51.164;4.488;2023-04-26T10:56:49;11.65;;;5.65;;
40745;SDS011;26454;51.164;4.488;2023-04-26T10:59:18;9.02;;;4.68;;
40745;SDS011;26454;51.164;4.488;2023-04-26T11:01:45;12.90;;;5.13;;
40745;SDS011;26454;51.164;4.488;2023-04-26T11:04:12;12.55;;;5.65;;
40745;SDS011;26454;51.164;4.488;2023-04-26T11:12:04;8.82;;;4.82;;
40745;SDS011;26454;51.164;4.488;2023-04-26T11:14:31;6.90;;;4.28;;
40745;SDS011;26454;51.164;4.488;2023-04-26T11:17:01;9.20;;;5.35;;
40745;SDS011;26454;51.164;4.488;2023-04-26T11:19:30;11.07;;;5.50;;
40745;SDS011;26454;51.164;4.488;2023-04-26T11:21:57;10.13;;;5.10;;
40745;SDS011;26454;51.164;4.488;2023-04-26T11:24:24;8.95;;;4.45;;
40745;SDS011;26454;51.164;4.488;2023-04-26T11:26:50;6.28;;;4.65;;
40745;SDS011;26454;51.164;4.488;2023-04-26T11:29:17;9.80;;;4.63;;
40745;SDS011;26454;51.164;4.488;2023-04-26T11:31:49;8.98;;;4.15;;
40745;SDS011;26454;51.164;4.488;2023-04-26T11:34:16;9.77;;;4.13;;
40745;SDS011;26454;51.164;4.488;2023-04-26T11:36:43;9.07;;;4.30;;
40745;SDS011;26454;51.164;4.488;2023-04-26T11:39:10;7.95;;;4.18;;
40745;SDS011;26454;51.164;4.488;2023-04-26T11:41:38;9.73;;;3.83;;
40745;SDS011;26454;51.164;4.488;2023-04-26T11:44:04;7.50;;;3.85;;
40745;SDS011;26454;51.164;4.488;2023-04-26T11:46:32;5.85;;;3.70;;
40745;SDS011;26454;51.164;4.488;2023-04-26T11:49:01;10.27;;;4.25;;
40745;SDS011;26454;51.164;4.488;2023-04-26T11:51:27;6.97;;;3.88;;
40745;SDS011;26454;51.164;4.488;2023-04-26T11:53:54;7.32;;;4.90;;
40745;SDS011;26454;51.164;4.488;2023-04-26T11:56:20;7.43;;;4.05;;
40745;SDS011;26454;51.164;4.488;2023-04-26T11:58:50;10.23;;;4.28;;
40745;SDS011;26454;51.164;4.488;2023-04-26T12:01:20;5.72;;;3.92;;
40745;SDS011;26454;51.164;4.488;2023-04-26T12:03:48;9.43;;;3.58;;
40745;SDS011;26454;51.164;4.488;2023-04-26T12:06:15;9.68;;;4.30;;
40745;SDS011;26454;51.164;4.488;2023-04-26T12:08:41;17.15;;;6.18;;
40745;SDS011;26454;51.164;4.488;2023-04-26T12:11:08;8.75;;;4.72;;
40745;SDS011;26454;51.164;4.488;2023-04-26T12:13:36;9.77;;;4.45;;
40745;SDS011;26454;51.164;4.488;2023-04-26T12:16:08;10.50;;;3.75;;
40745;SDS011;26454;51.164;4.488;2023-04-26T12:18:35;9.95;;;4.20;;
40745;SDS011;26454;51.164;4.488;2023-04-26T12:21:02;10.85;;;4.72;;
40745;SDS011;26454;51.164;4.488;2023-04-26T12:23:35;13.70;;;5.22;;
40745;SDS011;26454;51.164;4.488;2023-04-26T12:26:03;6.65;;;4.40;;
40745;SDS011;26454;51.164;4.488;2023-04-26T12:28:29;6.95;;;5.10;;
40745;SDS011;26454;51.164;4.488;2023-04-26T12:30:55;8.85;;;5.55;;
40745;SDS011;26454;51.164;4.488;2023-04-26T12:33:22;14.98;;;5.20;;
40745;SDS011;26454;51.164;4.488;2023-04-26T12:38:17;6.80;;;5.03;;
40745;SDS011;26454;51.164;4.488;2023-04-26T12:40:45;6.90;;;3.97;;
40745;SDS011;26454;51.164;4.488;2023-04-26T12:43:12;10.23;;;5.60;;
40745;SDS011;26454;51.164;4.488;2023-04-26T12:45:40;8.95;;;4.82;;
40745;SDS011;26454;51.164;4.488;2023-04-26T12:48:06;10.32;;;5.38;;
40745;SDS011;26454;51.164;4.488;2023-04-26T12:50:33;11.43;;;4.82;;
40745;SDS011;26454;51.164;4.488;2023-04-26T12:53:01;9.73;;;4.80;;
40745;SDS011;26454;51.164;4.488;2023-04-26T12:55:27;11.10;;;4.05;;
40745;SDS011;26454;51.164;4.488;2023-04-26T12:57:55;7.65;;;4.68;;
40745;SDS011;26454;51.164;4.488;2023-04-26T13:00:21;13.23;;;4.65;;
40745;SDS011;26454;51.164;4.488;2023-04-26T13:02:47;8.57;;;4.65;;
40745;SDS011;26454;51.164;4.488;2023-04-26T13:05:14;8.52;;;4.32;;
40745;SDS011;26454;51.164;4.488;2023-04-26T13:07:42;8.98;;;6.03;;
40745;SDS011;26454;51.164;4.488;2023-04-26T13:10:08;11.20;;;4.53;;
40745;SDS011;26454;51.164;4.488;2023-04-26T13:12:35;6.93;;;4.80;;
40745;SDS011;26454;51.164;4.488;2023-04-26T13:15:03;9.43;;;5.07;;
40745;SDS011;26454;51.164;4.488;2023-04-26T13:17:30;6.90;;;4.85;;
40745;SDS011;26454;51.164;4.488;2023-04-26T13:19:56;7.03;;;4.50;;
40745;SDS011;26454;51.164;4.488;2023-04-26T13:22:22;6.68;;;4.28;;
40745;SDS011;26454;51.164;4.488;2023-04-26T13:24:48;8.55;;;4.22;;
40745;SDS011;26454;51.164;4.488;2023-04-26T13:27:14;6.57;;;4.63;;
40745;SDS011;26454;51.164;4.488;2023-04-26T13:29:40;13.50;;;5.10;;
40745;SDS011;26454;51.164;4.488;2023-04-26T13:32:06;10.05;;;5.03;;
40745;SDS011;26454;51.164;4.488;2023-04-26T13:34:33;10.40;;;6.20;;
40745;SDS011;26454;51.164;4.488;2023-04-26T13:36:59;10.82;;;5.63;;
40745;SDS011;26454;51.164;4.488;2023-04-26T13:39:25;8.65;;;5.40;;
40745;SDS011;26454;51.164;4.488;2023-04-26T13:41:53;13.65;;;3.97;;
40745;SDS011;26454;51.164;4.488;2023-04-26T13:44:19;8.68;;;3.63;;
40745;SDS011;26454;51.164;4.488;2023-04-26T13:46:46;7.28;;;3.78;;
40745;SDS011;26454;51.164;4.488;2023-04-26T13:49:12;17.02;;;5.28;;
40745;SDS011;26454;51.164;4.488;2023-04-26T13:51:38;7.53;;;4.47;;
40745;SDS011;26454;51.164;4.488;2023-04-26T13:54:05;12.40;;;4.57;;
40745;SDS011;26454;51.164;4.488;2023-04-26T13:56:31;11.48;;;4.55;;
40745;SDS011;26454;51.164;4.488;2023-04-26T13:58:59;7.13;;;4.50;;
40745;SDS011;26454;51.164;4.488;2023-04-26T14:01:27;9.95;;;4.65;;
40745;SDS011;26454;51.164;4.488;2023-04-26T14:03:56;9.25;;;5.00;;
40745;SDS011;26454;51.164;4.488;2023-04-26T14:06:22;8.20;;;3.95;;
40745;SDS011;26454;51.164;4.488;2023-04-26T14:08:48;10.27;;;4.03;;
40745;SDS011;26454;51.164;4.488;2023-04-26T14:11:15;8.07;;;3.83;;
40745;SDS011;26454;51.164;4.488;2023-04-26T14:13:45;10.35;;;4.80;;
40745;SDS011;26454;51.164;4.488;2023-04-26T14:16:12;9.18;;;4.93;;
40745;SDS011;26454;51.164;4.488;2023-04-26T14:18:38;8.93;;;4.40;;
40745;SDS011;26454;51.164;4.488;2023-04-26T14:21:09;9.88;;;4.85;;
40745;SDS011;26454;51.164;4.488;2023-04-26T14:23:35;8.93;;;4.88;;
40745;SDS011;26454;51.164;4.488;2023-04-26T14:26:03;9.30;;;4.00;;
40745;SDS011;26454;51.164;4.488;2023-04-26T14:28:29;12.43;;;4.78;;
40745;SDS011;26454;51.164;4.488;2023-04-26T14:30:57;8.88;;;4.85;;
40745;SDS011;26454;51.164;4.488;2023-04-26T14:33:24;8.57;;;4.78;;
40745;SDS011;26454;51.164;4.488;2023-04-26T14:35:51;9.57;;;4.60;;
40745;SDS011;26454;51.164;4.488;2023-04-26T14:38:19;8.65;;;5.45;;
40745;SDS011;26454;51.164;4.488;2023-04-26T14:40:55;8.45;;;4.65;;
40745;SDS011;26454;51.164;4.488;2023-04-26T14:43:21;9.68;;;5.05;;
40745;SDS011;26454;51.164;4.488;2023-04-26T14:45:49;7.03;;;3.85;;
40745;SDS011;26454;51.164;4.488;2023-04-26T14:48:15;8.88;;;4.45;;
40745;SDS011;26454;51.164;4.488;2023-04-26T14:50:43;6.38;;;4.20;;
40745;SDS011;26454;51.164;4.488;2023-04-26T14:53:09;13.05;;;5.22;;
40745;SDS011;26454;51.164;4.488;2023-04-26T14:55:35;8.18;;;4.70;;
40745;SDS011;26454;51.164;4.488;2023-04-26T14:58:01;9.07;;;4.90;;
40745;SDS011;26454;51.164;4.488;2023-04-26T15:00:28;7.05;;;4.40;;
40745;SDS011;26454;51.164;4.488;2023-04-26T15:02:54;7.47;;;4.45;;